createdAt,value
2016-08-09T00:00:19.144Z,0
2016-08-09T00:01:19.125Z,0
2016-08-09T00:02:19.822Z,0
2016-08-09T00:03:18.400Z,0
2016-08-09T00:04:19.107Z,0
2016-08-09T00:05:19.081Z,0
2016-08-09T00:06:21.199Z,0
2016-08-09T00:07:20.487Z,0
2016-08-09T00:08:18.350Z,0
2016-08-09T00:09:19.052Z,0
2016-08-09T00:10:20.465Z,0
2016-08-09T00:11:19.025Z,0
2016-08-09T00:12:19.022Z,0
2016-08-09T00:13:19.708Z,0
2016-08-09T00:14:19.194Z,0
2016-08-09T00:15:18.985Z,0
2016-08-09T00:16:18.973Z,0
2016-08-09T00:17:20.378Z,0
2016-08-09T00:18:18.955Z,0
2016-08-09T00:19:18.935Z,0
2016-08-09T00:20:20.343Z,0
2016-08-09T00:21:18.224Z,0
2016-08-09T00:22:19.628Z,0
2016-08-09T00:23:18.902Z,0
2016-08-09T00:24:18.877Z,0
2016-08-09T00:25:19.592Z,0
2016-08-09T00:26:19.574Z,0
2016-08-09T00:27:18.151Z,0
2016-08-09T00:28:20.976Z,0
2016-08-09T00:29:20.259Z,0
2016-08-09T00:30:18.826Z,0
2016-08-09T00:31:19.515Z,0
2016-08-09T00:32:20.229Z,0
2016-08-09T00:33:18.084Z,0
2016-08-09T00:34:20.202Z,0
2016-08-09T00:35:18.771Z,0
2016-08-09T00:36:19.467Z,0
2016-08-09T00:37:19.463Z,0
2016-08-09T00:38:18.765Z,0
2016-08-09T00:39:20.156Z,0
2016-08-09T00:40:18.010Z,0
2016-08-09T00:41:18.007Z,0
2016-08-09T00:42:19.420Z,0
2016-08-09T00:43:19.393Z,0
2016-08-09T00:44:18.694Z,0
2016-08-09T00:45:19.381Z,0
2016-08-09T00:46:20.779Z,0
2016-08-09T00:47:18.646Z,0
2016-08-09T00:48:17.929Z,0
2016-08-09T00:49:19.333Z,0
2016-08-09T00:50:18.616Z,0
2016-08-09T00:51:19.319Z,0
2016-08-09T00:52:18.607Z,0
2016-08-09T00:53:17.882Z,0
2016-08-09T00:54:18.576Z,0
2016-08-09T00:55:18.575Z,0
2016-08-09T00:56:19.968Z,0
2016-08-09T00:57:19.268Z,0
2016-08-09T00:58:17.821Z,0
2016-08-09T00:59:18.514Z,0
2016-08-09T01:00:17.804Z,0
2016-08-09T01:01:18.511Z,0
2016-08-09T01:03:18.481Z,0
2016-08-09T01:04:18.677Z,0
2016-08-09T01:05:19.879Z,0
2016-08-09T01:06:19.160Z,0
2016-08-09T01:07:18.434Z,0
2016-08-09T01:08:19.138Z,0
2016-08-09T01:09:19.127Z,0
2016-08-09T01:10:19.108Z,0
2016-08-09T01:11:18.398Z,0
2016-08-09T01:12:19.088Z,0
2016-08-09T01:13:19.086Z,0
2016-08-09T01:14:18.360Z,0
2016-08-09T01:15:19.077Z,0
2016-08-09T01:16:19.057Z,0
2016-08-09T01:18:19.035Z,0
2016-08-09T01:19:19.020Z,0
2016-08-09T01:20:19.011Z,0
2016-08-09T01:21:19.710Z,0
2016-08-09T01:22:19.689Z,0
2016-08-09T01:23:18.978Z,0
2016-08-09T01:24:18.977Z,0
2016-08-09T01:25:17.552Z,0
2016-08-09T01:26:18.949Z,0
2016-08-09T01:27:18.939Z,0
2016-08-09T01:28:18.216Z,0
2016-08-09T01:29:18.206Z,0
2016-08-09T01:30:18.197Z,0
2016-08-09T01:31:18.184Z,0
2016-08-09T01:33:18.883Z,0
2016-08-09T01:34:18.877Z,0
2016-08-09T01:35:19.564Z,0
2016-08-09T01:36:18.146Z,0
2016-08-09T01:37:17.414Z,0
2016-08-09T01:38:18.109Z,0
2016-08-09T01:39:18.816Z,0
2016-08-09T01:40:18.817Z,0
2016-08-09T01:41:18.788Z,0
2016-08-09T01:42:18.790Z,0
2016-08-09T01:43:18.066Z,0
2016-08-09T01:44:18.048Z,0
2016-08-09T01:45:18.040Z,0
2016-08-09T01:46:18.031Z,0
2016-08-09T01:48:18.722Z,0
2016-08-09T01:49:17.296Z,0
2016-08-09T01:50:17.287Z,0
2016-08-09T01:51:17.973Z,0
2016-08-09T01:52:17.975Z,0
2016-08-09T01:53:17.965Z,0
2016-08-09T01:54:18.655Z,0
2016-08-09T01:55:19.349Z,0
2016-08-09T01:56:17.928Z,0
2016-08-09T01:57:17.915Z,0
2016-08-09T01:58:17.905Z,0
2016-08-09T01:59:18.603Z,0
2016-08-09T02:00:17.885Z,0
2016-08-09T02:01:18.587Z,0
2016-08-09T02:03:17.859Z,0
2016-08-09T02:04:17.141Z,0
2016-08-09T02:05:18.543Z,0
2016-08-09T02:06:19.244Z,0
2016-08-09T02:07:19.236Z,0
2016-08-09T02:08:17.815Z,0
2016-08-09T02:09:17.111Z,0
2016-08-09T02:10:18.487Z,0
2016-08-09T02:11:19.188Z,0
2016-08-09T02:12:17.758Z,0
2016-08-09T02:13:19.162Z,0
2016-08-09T02:14:18.439Z,0
2016-08-09T02:15:19.147Z,0
2016-08-09T02:16:17.017Z,0
2016-08-09T02:17:17.708Z,0
2016-08-09T02:18:19.819Z,0
2016-08-09T02:19:17.700Z,0
2016-08-09T02:20:18.383Z,0
2016-08-09T02:21:18.378Z,0
2016-08-09T02:22:18.369Z,0
2016-08-09T02:23:16.938Z,0
2016-08-09T02:24:17.653Z,0
2016-08-09T02:25:18.330Z,0
2016-08-09T02:26:19.038Z,0
2016-08-09T02:27:17.611Z,0
2016-08-09T02:28:18.297Z,0
2016-08-09T02:29:17.587Z,0
2016-08-09T02:30:17.579Z,0
2016-08-09T02:31:18.278Z,0
2016-08-09T02:32:18.967Z,0
2016-08-09T02:33:18.253Z,0
2016-08-09T02:34:18.247Z,0
2016-08-09T02:35:16.831Z,0
2016-08-09T02:36:17.510Z,0
2016-08-09T02:37:18.205Z,0
2016-08-09T02:38:18.227Z,0
2016-08-09T02:39:16.774Z,0
2016-08-09T02:40:18.896Z,0
2016-08-09T02:41:16.760Z,0
2016-08-09T02:42:18.162Z,0
2016-08-09T02:43:18.154Z,0
2016-08-09T02:44:18.139Z,0
2016-08-09T02:45:16.709Z,0
2016-08-09T02:46:16.700Z,0
2016-08-09T02:47:16.697Z,0
2016-08-09T02:48:17.388Z,0
2016-08-09T02:49:16.668Z,0
2016-08-09T02:50:16.664Z,0
2016-08-09T02:51:18.067Z,0
2016-08-09T02:52:18.089Z,0
2016-08-09T02:53:18.069Z,0
2016-08-09T02:54:18.032Z,0
2016-08-09T02:55:16.610Z,0
2016-08-09T02:56:18.021Z,0
2016-08-09T02:57:17.293Z,0
2016-08-09T02:58:17.291Z,0
2016-08-09T02:59:17.279Z,0
2016-08-09T03:00:17.273Z,0
2016-08-09T03:01:18.667Z,0
2016-08-09T03:02:17.242Z,0
2016-08-09T03:03:18.644Z,0
2016-08-09T03:04:18.131Z,0
2016-08-09T03:05:16.511Z,0
2016-08-09T03:06:17.936Z,0
2016-08-09T03:07:17.903Z,0
2016-08-09T03:08:17.896Z,0
2016-08-09T03:09:17.174Z,0
2016-08-09T03:10:18.577Z,0
2016-08-09T03:11:17.858Z,0
2016-08-09T03:12:18.555Z,0
2016-08-09T03:13:18.543Z,0
2016-08-09T03:14:16.414Z,0
2016-08-09T03:15:17.819Z,0
2016-08-09T03:16:18.511Z,0
2016-08-09T03:17:16.378Z,0
2016-08-09T03:18:17.084Z,0
2016-08-09T03:19:16.358Z,0
2016-08-09T03:20:17.057Z,0
2016-08-09T03:21:18.461Z,0
2016-08-09T03:22:17.745Z,0
2016-08-09T03:23:17.043Z,0
2016-08-09T03:24:17.735Z,0
2016-08-09T03:25:17.000Z,0
2016-08-09T03:26:16.288Z,0
2016-08-09T03:27:16.982Z,0
2016-08-09T03:28:18.401Z,0
2016-08-09T03:29:16.964Z,0
2016-08-09T03:30:17.655Z,0
2016-08-09T03:31:17.655Z,0
2016-08-09T03:32:18.355Z,0
2016-08-09T03:33:18.342Z,0
2016-08-09T03:34:16.206Z,0
2016-08-09T03:35:16.195Z,0
2016-08-09T03:36:16.889Z,0
2016-08-09T03:37:17.592Z,0
2016-08-09T03:38:17.586Z,0
2016-08-09T03:39:18.307Z,0
2016-08-09T03:40:16.850Z,0
2016-08-09T03:41:16.129Z,0
2016-08-09T03:42:16.831Z,0
2016-08-09T03:43:18.237Z,0
2016-08-09T03:44:16.813Z,0
2016-08-09T03:45:16.801Z,0
2016-08-09T03:46:16.792Z,0
2016-08-09T03:47:16.783Z,0
2016-08-09T03:48:16.768Z,0
2016-08-09T03:49:18.173Z,0
2016-08-09T03:50:16.048Z,0
2016-08-09T03:51:18.154Z,0
2016-08-09T03:52:16.024Z,0
2016-08-09T03:53:17.420Z,0
2016-08-09T03:54:16.003Z,0
2016-08-09T03:55:16.698Z,0
2016-08-09T03:56:15.979Z,0
2016-08-09T03:57:16.680Z,0
2016-08-09T03:58:17.376Z,0
2016-08-09T03:59:17.364Z,0
2016-08-09T04:00:15.949Z,0
2016-08-09T04:01:17.351Z,0
2016-08-09T04:02:16.627Z,0
2016-08-09T04:03:16.619Z,0
2016-08-09T04:04:17.324Z,0
2016-08-09T04:05:15.894Z,0
2016-08-09T04:06:16.582Z,0
2016-08-09T04:07:18.957Z,0
2016-08-09T04:08:17.263Z,0
2016-08-09T04:09:17.253Z,0
2016-08-09T04:10:17.242Z,0
2016-08-09T04:11:15.836Z,0
2016-08-09T04:12:17.236Z,0
2016-08-09T04:13:17.948Z,0
2016-08-09T04:14:17.470Z,0
2016-08-09T04:15:15.778Z,0
2016-08-09T04:16:17.185Z,0
2016-08-09T04:17:16.473Z,0
2016-08-09T04:18:16.456Z,0
2016-08-09T04:19:15.737Z,0
2016-08-09T04:20:17.146Z,0
2016-08-09T04:21:16.427Z,0
2016-08-09T04:22:17.146Z,0
2016-08-09T04:23:15.713Z,0
2016-08-09T04:24:17.110Z,0
2016-08-09T04:25:15.680Z,5
2016-08-09T04:26:16.376Z,5
2016-08-09T04:27:17.073Z,5
2016-08-09T04:28:17.075Z,5
2016-08-09T04:29:15.640Z,5
2016-08-09T04:30:17.044Z,5
2016-08-09T04:31:16.332Z,10
2016-08-09T04:32:16.309Z,10
2016-08-09T04:33:16.319Z,10
2016-08-09T04:34:16.996Z,10
2016-08-09T04:35:16.283Z,15
2016-08-09T04:36:15.566Z,15
2016-08-09T04:37:17.686Z,15
2016-08-09T04:38:16.257Z,15
2016-08-09T04:39:17.668Z,15
2016-08-09T04:40:16.944Z,15
2016-08-09T04:41:16.233Z,10
2016-08-09T04:42:16.912Z,10
2016-08-09T04:43:16.198Z,10
2016-08-09T04:44:16.901Z,10
2016-08-09T04:45:16.891Z,15
2016-08-09T04:46:17.587Z,15
2016-08-09T04:47:16.188Z,15
2016-08-09T04:48:15.446Z,15
2016-08-09T04:49:16.874Z,15
2016-08-09T04:50:16.838Z,15
2016-08-09T04:51:16.113Z,15
2016-08-09T04:52:16.127Z,10
2016-08-09T04:53:16.100Z,10
2016-08-09T04:54:18.262Z,10
2016-08-09T04:55:15.384Z,5
2016-08-09T04:56:16.967Z,5
2016-08-09T04:57:15.356Z,5
2016-08-09T04:58:15.347Z,5
2016-08-09T04:59:16.051Z,5
2016-08-09T05:00:16.743Z,10
2016-08-09T05:01:16.737Z,10
2016-08-09T05:02:16.206Z,15
2016-08-09T05:03:16.713Z,20
2016-08-09T05:04:16.401Z,25
2016-08-09T05:05:15.978Z,25
2016-08-09T05:06:15.977Z,30
2016-08-09T05:07:16.666Z,35
2016-08-09T05:08:15.239Z,35
2016-08-09T05:09:16.652Z,40
2016-08-09T05:10:16.637Z,40
2016-08-09T05:11:15.319Z,40
2016-08-09T05:12:15.209Z,45
2016-08-09T05:13:15.891Z,45
2016-08-09T05:14:15.881Z,45
2016-08-09T05:15:17.296Z,45
2016-08-09T05:16:15.164Z,45
2016-08-09T05:17:16.564Z,45
2016-08-09T05:18:15.843Z,45
2016-08-09T05:19:17.255Z,50
2016-08-09T05:20:16.550Z,50
2016-08-09T05:21:15.113Z,50
2016-08-09T05:22:16.509Z,55
2016-08-09T05:23:16.496Z,55
2016-08-09T05:24:16.489Z,55
2016-08-09T05:25:15.086Z,55
2016-08-09T05:26:15.062Z,55
2016-08-09T05:27:15.760Z,60
2016-08-09T05:28:15.045Z,60
2016-08-09T05:29:15.734Z,60
2016-08-09T05:30:15.011Z,60
2016-08-09T05:31:16.421Z,55
2016-08-09T05:32:15.705Z,55
2016-08-09T05:33:15.697Z,55
2016-08-09T05:34:17.103Z,50
2016-08-09T05:35:14.968Z,55
2016-08-09T05:36:16.366Z,50
2016-08-09T05:37:16.358Z,50
2016-08-09T05:38:17.059Z,50
2016-08-09T05:39:15.639Z,50
2016-08-09T05:40:16.334Z,50
2016-08-09T05:41:17.023Z,50
2016-08-09T05:42:17.028Z,45
2016-08-09T05:43:17.005Z,45
2016-08-09T05:44:15.580Z,45
2016-08-09T05:45:14.871Z,50
2016-08-09T05:46:14.858Z,50
2016-08-09T05:47:16.290Z,50
2016-08-09T05:48:15.542Z,55
2016-08-09T05:49:15.536Z,55
2016-08-09T05:50:15.541Z,55
2016-08-09T05:51:16.226Z,60
2016-08-09T05:52:16.915Z,60
2016-08-09T05:53:15.496Z,60
2016-08-09T05:54:16.908Z,60
2016-08-09T05:55:16.180Z,55
2016-08-09T05:56:15.474Z,55
2016-08-09T05:57:14.744Z,55
2016-08-09T05:58:16.852Z,60
2016-08-09T05:59:17.555Z,60
2016-08-09T06:00:16.880Z,60
2016-08-09T06:01:14.705Z,65
2016-08-09T06:02:16.810Z,65
2016-08-09T06:04:16.791Z,75
2016-08-09T06:05:15.369Z,75
2016-08-09T06:06:16.087Z,80
2016-08-09T06:07:16.055Z,80
2016-08-09T06:08:16.054Z,85
2016-08-09T06:09:16.755Z,95
2016-08-09T06:10:15.319Z,95
2016-08-09T06:11:16.028Z,110
2016-08-09T06:12:15.293Z,115
2016-08-09T06:13:15.292Z,120
2016-08-09T06:14:15.993Z,130
2016-08-09T06:15:15.457Z,130
2016-08-09T06:16:16.675Z,130
2016-08-09T06:17:15.961Z,130
2016-08-09T06:19:14.522Z,110
2016-08-09T06:20:15.222Z,105
2016-08-09T06:21:15.909Z,105
2016-08-09T06:22:15.201Z,105
2016-08-09T06:23:15.201Z,115
2016-08-09T06:24:15.904Z,125
2016-08-09T06:25:16.603Z,125
2016-08-09T06:26:15.167Z,125
2016-08-09T06:27:15.857Z,120
2016-08-09T06:28:15.139Z,120
2016-08-09T06:29:15.842Z,115
2016-08-09T06:30:16.739Z,110
2016-08-09T06:31:16.542Z,105
2016-08-09T06:32:15.108Z,105
2016-08-09T06:34:17.222Z,95
2016-08-09T06:35:15.806Z,90
2016-08-09T06:36:15.062Z,90
2016-08-09T06:37:15.763Z,85
2016-08-09T06:38:15.767Z,75
2016-08-09T06:39:15.032Z,75
2016-08-09T06:40:15.026Z,75
2016-08-09T06:41:15.731Z,75
2016-08-09T06:42:15.001Z,75
2016-08-09T06:43:14.295Z,80
2016-08-09T06:44:14.989Z,85
2016-08-09T06:45:14.271Z,85
2016-08-09T06:46:15.675Z,85
2016-08-09T06:47:15.664Z,85
2016-08-09T06:48:14.962Z,90
2016-08-09T06:49:16.368Z,90
2016-08-09T06:52:14.185Z,90
2016-08-09T06:53:15.600Z,90
2016-08-09T06:54:16.304Z,95
2016-08-09T06:55:14.880Z,95
2016-08-09T06:56:14.163Z,105
2016-08-09T06:57:15.585Z,95
2016-08-09T06:58:14.864Z,95
2016-08-09T06:59:15.552Z,100
2016-08-09T07:00:14.836Z,110
2016-08-09T07:01:14.119Z,110
2016-08-09T07:02:14.815Z,120
2016-08-09T07:03:14.798Z,115
2016-08-09T07:04:15.497Z,110
2016-08-09T07:05:16.390Z,105
2016-08-09T07:06:16.295Z,120
2016-08-09T07:07:14.755Z,120
2016-08-09T07:08:14.754Z,110
2016-08-09T07:09:15.446Z,105
2016-08-09T07:10:14.736Z,105
2016-08-09T07:11:14.725Z,100
2016-08-09T07:12:16.126Z,100
2016-08-09T07:13:15.414Z,105
2016-08-09T07:14:14.737Z,105
2016-08-09T07:15:13.978Z,105
2016-08-09T07:16:13.969Z,110
2016-08-09T07:17:15.369Z,110
2016-08-09T07:18:15.366Z,110
2016-08-09T07:19:14.649Z,110
2016-08-09T07:20:15.359Z,115
2016-08-09T07:21:14.621Z,115
2016-08-09T07:22:15.318Z,115
2016-08-09T07:23:15.332Z,110
2016-08-09T07:24:15.299Z,110
2016-08-09T07:25:14.589Z,110
2016-08-09T07:26:15.991Z,110
2016-08-09T07:27:14.574Z,110
2016-08-09T07:28:14.555Z,115
2016-08-09T07:29:14.556Z,125
2016-08-09T07:30:15.246Z,135
2016-08-09T07:31:15.231Z,145
2016-08-09T07:32:15.938Z,160
2016-08-09T07:33:15.214Z,170
2016-08-09T07:34:13.791Z,170
2016-08-09T07:35:14.486Z,150
2016-08-09T07:36:14.552Z,135
2016-08-09T07:37:15.886Z,140
2016-08-09T07:38:15.168Z,145
2016-08-09T07:39:15.176Z,135
2016-08-09T07:40:15.146Z,145
2016-08-09T07:41:15.849Z,150
2016-08-09T07:42:15.129Z,165
2016-08-09T07:43:14.420Z,185
2016-08-09T07:44:15.836Z,220
2016-08-09T07:45:14.389Z,245
2016-08-09T07:46:15.803Z,250
2016-08-09T07:47:15.797Z,295
2016-08-09T07:48:14.405Z,275
2016-08-09T07:49:15.086Z,255
2016-08-09T07:50:15.771Z,270
2016-08-09T07:51:13.630Z,295
2016-08-09T07:52:14.342Z,310
2016-08-09T07:53:15.760Z,325
2016-08-09T07:54:14.325Z,330
2016-08-09T07:55:15.033Z,320
2016-08-09T07:56:13.594Z,315
2016-08-09T07:57:14.992Z,285
2016-08-09T07:58:14.988Z,300
2016-08-09T07:59:14.986Z,305
2016-08-09T08:00:16.398Z,300
2016-08-09T08:01:14.971Z,285
2016-08-09T08:02:14.966Z,270
2016-08-09T08:03:14.255Z,240
2016-08-09T08:04:14.233Z,235
2016-08-09T08:05:14.945Z,225
2016-08-09T08:06:14.232Z,235
2016-08-09T08:07:14.220Z,295
2016-08-09T08:08:14.210Z,280
2016-08-09T08:09:14.914Z,270
2016-08-09T08:10:14.195Z,275
2016-08-09T08:11:14.889Z,290
2016-08-09T08:12:15.607Z,320
2016-08-09T08:13:14.878Z,300
2016-08-09T08:14:15.588Z,325
2016-08-09T08:15:14.860Z,355
2016-08-09T08:16:14.149Z,410
2016-08-09T08:17:13.507Z,530
2016-08-09T08:18:14.138Z,570
2016-08-09T08:19:14.835Z,575
2016-08-09T08:20:16.247Z,430
2016-08-09T08:21:13.405Z,450
2016-08-09T08:22:14.101Z,580
2016-08-09T08:23:14.808Z,525
2016-08-09T08:24:14.798Z,515
2016-08-09T08:25:14.081Z,545
2016-08-09T08:26:14.774Z,460
2016-08-09T08:27:13.366Z,430
2016-08-09T08:28:14.766Z,480
2016-08-09T08:29:14.757Z,435
2016-08-09T08:30:14.051Z,365
2016-08-09T08:31:16.176Z,335
2016-08-09T08:32:14.744Z,330
2016-08-09T08:33:14.793Z,280
2016-08-09T08:34:14.725Z,280
2016-08-09T08:35:14.750Z,285
2016-08-09T08:36:13.299Z,385
2016-08-09T08:37:13.997Z,620
2016-08-09T08:38:14.702Z,305
2016-08-09T08:39:13.984Z,375
2016-08-09T08:40:14.695Z,410
2016-08-09T08:41:14.696Z,1605
2016-08-09T08:42:14.677Z,1645
2016-08-09T08:43:13.967Z,1635
2016-08-09T08:44:14.683Z,1625
2016-08-09T08:45:13.953Z,1060
2016-08-09T08:46:13.950Z,1525
2016-08-09T08:47:14.650Z,780
2016-08-09T08:48:14.698Z,1170
2016-08-09T08:49:13.932Z,905
2016-08-09T08:50:13.931Z,1055
2016-08-09T08:51:14.636Z,740
2016-08-09T08:52:14.628Z,420
2016-08-09T08:53:13.908Z,740
2016-08-09T08:54:13.200Z,405
2016-08-09T08:55:13.919Z,275
2016-08-09T08:56:15.313Z,230
2016-08-09T08:57:16.079Z,220
2016-08-09T08:58:13.172Z,220
2016-08-09T08:59:13.191Z,220
2016-08-09T09:00:13.891Z,220
2016-08-09T09:01:13.891Z,230
2016-08-09T09:02:13.865Z,240
2016-08-09T09:03:13.868Z,250
2016-08-09T09:04:15.276Z,275
2016-08-09T09:05:15.486Z,310
2016-08-09T09:06:14.552Z,350
2016-08-09T09:07:14.545Z,385
2016-08-09T09:08:14.541Z,385
2016-08-09T09:09:13.832Z,370
2016-08-09T09:10:15.229Z,595
2016-08-09T09:11:13.107Z,335
2016-08-09T09:12:15.223Z,250
2016-08-09T09:13:15.215Z,220
2016-08-09T09:14:13.808Z,225
2016-08-09T09:15:14.502Z,250
2016-08-09T09:16:15.279Z,305
2016-08-09T09:17:13.115Z,325
2016-08-09T09:18:13.774Z,315
2016-08-09T09:19:14.470Z,300
2016-08-09T09:20:15.878Z,265
2016-08-09T09:21:13.762Z,250
2016-08-09T09:22:13.045Z,215
2016-08-09T09:23:15.156Z,195
2016-08-09T09:24:13.735Z,175
2016-08-09T09:25:13.036Z,170
2016-08-09T09:26:14.433Z,155
2016-08-09T09:27:14.741Z,145
2016-08-09T09:28:14.437Z,145
2016-08-09T09:29:14.426Z,155
2016-08-09T09:30:14.410Z,170
2016-08-09T09:31:15.828Z,190
2016-08-09T09:32:15.100Z,215
2016-08-09T09:33:14.377Z,240
2016-08-09T09:34:15.080Z,275
2016-08-09T09:35:13.663Z,295
2016-08-09T09:36:13.656Z,325
2016-08-09T09:37:13.650Z,340
2016-08-09T09:38:13.649Z,355
2016-08-09T09:39:14.342Z,395
2016-08-09T09:40:14.336Z,410
2016-08-09T09:41:13.626Z,385
2016-08-09T09:42:15.028Z,360
2016-08-09T09:43:12.900Z,335
2016-08-09T09:44:15.012Z,320
2016-08-09T09:45:13.661Z,325
2016-08-09T09:46:14.298Z,320
2016-08-09T09:47:14.995Z,300
2016-08-09T09:48:14.287Z,285
2016-08-09T09:49:12.848Z,255
2016-08-09T09:50:12.901Z,260
2016-08-09T09:51:14.258Z,265
2016-08-09T09:52:14.279Z,255
2016-08-09T09:53:13.540Z,225
2016-08-09T09:54:13.534Z,220
2016-08-09T09:55:13.537Z,235
2016-08-09T09:56:13.516Z,275
2016-08-09T09:57:14.922Z,205
2016-08-09T09:58:13.516Z,190
2016-08-09T09:59:12.788Z,210
2016-08-09T10:00:14.214Z,210
2016-08-09T10:01:14.910Z,205
2016-08-09T10:02:13.485Z,210
2016-08-09T10:03:14.881Z,215
2016-08-09T10:04:12.714Z,225
2016-08-09T10:05:14.156Z,245
2016-08-09T10:06:14.872Z,295
2016-08-09T10:07:13.492Z,430
2016-08-09T10:08:14.839Z,345
2016-08-09T10:09:12.715Z,360
2016-08-09T10:10:14.837Z,515
2016-08-09T10:11:14.819Z,375
2016-08-09T10:12:13.399Z,270
2016-08-09T10:13:14.101Z,265
2016-08-09T10:14:14.098Z,310
2016-08-09T10:15:14.192Z,370
2016-08-09T10:16:12.665Z,745
2016-08-09T10:17:14.074Z,485
2016-08-09T10:18:14.132Z,380
2016-08-09T10:20:13.355Z,420
2016-08-09T10:21:14.052Z,270
2016-08-09T10:22:14.061Z,305
2016-08-09T10:23:13.336Z,595
2016-08-09T10:24:14.738Z,265
2016-08-09T10:25:12.609Z,710
2016-08-09T10:26:14.028Z,300
2016-08-09T10:27:14.716Z,820
2016-08-09T10:28:14.703Z,465
2016-08-09T10:29:13.999Z,1725
2016-08-09T10:30:13.998Z,290
2016-08-09T10:31:14.004Z,1995
2016-08-09T10:32:13.981Z,2150
2016-08-09T10:33:14.679Z,1065
2016-08-09T10:35:13.969Z,2150
2016-08-09T10:36:13.263Z,1600
2016-08-09T10:37:14.666Z,2195
2016-08-09T10:38:13.252Z,2230
2016-08-09T10:39:13.255Z,2220
2016-08-09T10:40:13.245Z,2200
2016-08-09T10:41:13.934Z,2210
2016-08-09T10:42:14.644Z,2235
2016-08-09T10:43:13.226Z,2285
2016-08-09T10:44:13.932Z,2305
2016-08-09T10:45:13.925Z,2335
2016-08-09T10:46:13.920Z,2325
2016-08-09T10:47:13.924Z,2350
2016-08-09T10:48:13.921Z,2365
2016-08-09T10:49:13.218Z,300
2016-08-09T10:50:13.209Z,2345
2016-08-09T10:51:12.504Z,1735
2016-08-09T10:52:13.918Z,2395
2016-08-09T10:53:14.632Z,2450
2016-08-09T10:54:13.206Z,540
2016-08-09T10:55:13.922Z,780
2016-08-09T10:56:13.210Z,305
2016-08-09T10:57:13.205Z,280
2016-08-09T10:58:13.208Z,335
2016-08-09T10:59:13.201Z,2350
2016-08-09T11:00:12.780Z,2375
2016-08-09T11:01:13.202Z,2375
2016-08-09T11:02:13.213Z,2420
2016-08-09T11:03:13.910Z,2250
2016-08-09T11:04:13.926Z,580
2016-08-09T11:05:14.221Z,260
2016-08-09T11:06:13.224Z,820
2016-08-09T11:07:13.205Z,2055
2016-08-09T11:08:13.913Z,2040
2016-08-09T11:09:13.911Z,2105
2016-08-09T11:10:13.214Z,2155
2016-08-09T11:11:13.945Z,2210
2016-08-09T11:12:15.331Z,2250
2016-08-09T11:13:14.630Z,2245
2016-08-09T11:14:13.903Z,2280
2016-08-09T11:15:14.640Z,1260
2016-08-09T11:16:13.213Z,1055
2016-08-09T11:17:13.914Z,2345
2016-08-09T11:18:12.507Z,2055
2016-08-09T11:19:13.926Z,2490
2016-08-09T11:20:13.924Z,1030
2016-08-09T11:21:13.918Z,2500
2016-08-09T11:22:15.332Z,960
2016-08-09T11:23:15.339Z,680
2016-08-09T11:24:14.645Z,300
2016-08-09T11:25:14.638Z,310
2016-08-09T11:26:13.940Z,220
2016-08-09T11:27:14.645Z,195
2016-08-09T11:28:15.366Z,200
2016-08-09T11:29:13.234Z,210
2016-08-09T11:30:13.935Z,215
2016-08-09T11:31:13.956Z,210
2016-08-09T11:32:13.940Z,190
2016-08-09T11:33:12.511Z,180
2016-08-09T11:34:15.337Z,165
2016-08-09T11:35:13.216Z,150
2016-08-09T11:36:13.214Z,135
2016-08-09T11:37:13.935Z,125
2016-08-09T11:38:13.218Z,115
2016-08-09T11:39:13.923Z,105
2016-08-09T11:40:13.209Z,100
2016-08-09T11:41:12.500Z,95
2016-08-09T11:42:13.215Z,100
2016-08-09T11:43:14.622Z,110
2016-08-09T11:44:14.607Z,115
2016-08-09T11:45:14.606Z,125
2016-08-09T11:46:14.632Z,135
2016-08-09T11:47:13.890Z,135
2016-08-09T11:48:13.883Z,130
2016-08-09T11:49:14.850Z,125
2016-08-09T11:50:14.596Z,120
2016-08-09T11:51:14.594Z,120
2016-08-09T11:52:13.878Z,120
2016-08-09T11:53:13.164Z,125
2016-08-09T11:54:15.259Z,130
2016-08-09T11:55:15.291Z,135
2016-08-09T11:56:13.135Z,135
2016-08-09T11:57:13.858Z,130
2016-08-09T11:58:13.833Z,125
2016-08-09T11:59:13.830Z,125
2016-08-09T12:00:14.590Z,120
2016-08-09T12:01:15.263Z,120
2016-08-09T12:02:13.814Z,120
2016-08-09T12:03:13.098Z,120
2016-08-09T12:04:13.810Z,120
2016-08-09T12:05:13.087Z,130
2016-08-09T12:06:13.083Z,145
2016-08-09T12:07:13.792Z,150
2016-08-09T12:08:13.772Z,170
2016-08-09T12:09:13.066Z,195
2016-08-09T12:10:13.091Z,225
2016-08-09T12:11:14.468Z,265
2016-08-09T12:12:14.467Z,305
2016-08-09T12:13:13.044Z,360
2016-08-09T12:14:12.341Z,435
2016-08-09T12:15:13.737Z,550
2016-08-09T12:16:13.027Z,1290
2016-08-09T12:17:14.448Z,2225
2016-08-09T12:18:14.431Z,1065
2016-08-09T12:19:13.711Z,2165
2016-08-09T12:20:13.704Z,815
2016-08-09T12:21:12.995Z,1590
2016-08-09T12:22:14.406Z,1055
2016-08-09T12:23:13.690Z,600
2016-08-09T12:24:14.391Z,1045
2016-08-09T12:25:12.972Z,1160
2016-08-09T12:26:14.391Z,530
2016-08-09T12:27:13.669Z,465
2016-08-09T12:28:13.669Z,435
2016-08-09T12:29:14.369Z,430
2016-08-09T12:30:13.653Z,430
2016-08-09T12:31:12.938Z,405
2016-08-09T12:32:13.643Z,375
2016-08-09T12:33:14.353Z,370
2016-08-09T12:34:13.643Z,365
2016-08-09T12:35:12.216Z,360
2016-08-09T12:36:12.923Z,350
2016-08-09T12:37:14.325Z,325
2016-08-09T12:38:13.607Z,315
2016-08-09T12:39:13.608Z,320
2016-08-09T12:40:13.604Z,325
2016-08-09T12:41:13.604Z,360
2016-08-09T12:42:15.020Z,380
2016-08-09T12:43:14.301Z,400
2016-08-09T12:44:13.588Z,400
2016-08-09T12:45:12.875Z,430
2016-08-09T12:46:13.588Z,460
2016-08-09T12:47:13.571Z,490
2016-08-09T12:48:12.860Z,535
2016-08-09T12:49:13.567Z,605
2016-08-09T12:50:13.557Z,770
2016-08-09T12:51:12.853Z,705
2016-08-09T12:52:12.841Z,860
2016-08-09T12:53:12.846Z,2425
2016-08-09T12:54:13.534Z,960
2016-08-09T12:55:13.524Z,675
2016-08-09T12:56:13.528Z,570
2016-08-09T12:57:13.518Z,460
2016-08-09T12:58:12.806Z,400
2016-08-09T12:59:12.807Z,355
2016-08-09T13:00:13.518Z,315
2016-08-09T13:01:12.803Z,275
2016-08-09T13:02:12.784Z,245
2016-08-09T13:03:12.793Z,210
2016-08-09T13:04:12.070Z,200
2016-08-09T13:05:12.977Z,205
2016-08-09T13:06:13.476Z,205
2016-08-09T13:07:12.762Z,250
2016-08-09T13:08:13.471Z,285
2016-08-09T13:09:12.759Z,285
2016-08-09T13:10:13.456Z,270
2016-08-09T13:11:13.452Z,245
2016-08-09T13:12:12.026Z,210
2016-08-09T13:13:13.434Z,190
2016-08-09T13:14:12.030Z,180
2016-08-09T13:15:13.427Z,175
2016-08-09T13:16:12.018Z,180
2016-08-09T13:17:13.424Z,180
2016-08-09T13:18:12.000Z,170
2016-08-09T13:19:13.409Z,180
2016-08-09T13:20:14.127Z,275
2016-08-09T13:21:13.396Z,650
2016-08-09T13:22:14.092Z,1995
2016-08-09T13:23:13.382Z,2005
2016-08-09T13:24:12.674Z,2035
2016-08-09T13:25:12.668Z,2025
2016-08-09T13:26:12.684Z,2010
2016-08-09T13:27:13.407Z,2050
2016-08-09T13:28:13.352Z,2035
2016-08-09T13:29:13.374Z,460
2016-08-09T13:30:13.351Z,380
2016-08-09T13:31:12.642Z,310
2016-08-09T13:32:11.960Z,265
2016-08-09T13:33:14.046Z,210
2016-08-09T13:34:13.333Z,180
2016-08-09T13:35:12.633Z,165
2016-08-09T13:36:13.328Z,160
2016-08-09T13:37:14.034Z,145
2016-08-09T13:38:12.615Z,130
2016-08-09T13:39:14.026Z,115
2016-08-09T13:40:14.020Z,115
2016-08-09T13:41:13.307Z,130
2016-08-09T13:42:13.309Z,155
2016-08-09T13:43:13.298Z,160
2016-08-09T13:44:13.302Z,155
2016-08-09T13:45:11.890Z,155
2016-08-09T13:46:12.568Z,155
2016-08-09T13:47:13.292Z,160
2016-08-09T13:48:13.284Z,160
2016-08-09T13:49:13.976Z,160
2016-08-09T13:50:13.973Z,150
2016-08-09T13:51:13.255Z,140
2016-08-09T13:52:13.242Z,130
2016-08-09T13:53:12.536Z,125
2016-08-09T13:54:12.533Z,115
2016-08-09T13:55:13.939Z,110
2016-08-09T13:56:12.532Z,105
2016-08-09T13:57:13.215Z,100
2016-08-09T13:58:13.946Z,100
2016-08-09T13:59:12.503Z,95
2016-08-09T14:00:12.521Z,95
2016-08-09T14:01:13.201Z,95
2016-08-09T14:02:11.786Z,95
2016-08-09T14:03:12.476Z,95
2016-08-09T14:04:13.897Z,90
2016-08-09T14:05:12.464Z,90
2016-08-09T14:06:13.167Z,85
2016-08-09T14:07:11.757Z,80
2016-08-09T14:08:13.870Z,80
2016-08-09T14:09:11.732Z,80
2016-08-09T14:10:13.134Z,75
2016-08-09T14:11:13.133Z,75
2016-08-09T14:12:13.837Z,70
2016-08-09T14:13:11.704Z,65
2016-08-09T14:14:12.399Z,60
2016-08-09T14:15:13.103Z,60
2016-08-09T14:16:13.804Z,55
2016-08-09T14:17:13.114Z,55
2016-08-09T14:18:12.378Z,55
2016-08-09T14:19:12.379Z,50